createdAt,value
2019-05-22T00:03:41.955Z,93.10
2019-05-22T00:10:28.963Z,93.00
2019-05-22T00:17:15.674Z,92.50
2019-05-22T00:24:01.010Z,91.90
2019-05-22T00:30:49.637Z,91.90
2019-05-22T00:37:35.296Z,91.20
2019-05-22T00:44:22.366Z,91.00
2019-05-22T00:51:16.622Z,90.80
2019-05-22T00:58:08.464Z,91.10
2019-05-22T01:04:56.795Z,91.00
2019-05-22T01:11:45.264Z,91.20
2019-05-22T01:18:32.001Z,91.80
2019-05-22T01:25:20.840Z,92.00
2019-05-22T01:32:07.699Z,91.50
2019-05-22T01:38:56.093Z,92.00
2019-05-22T01:45:42.974Z,92.10
2019-05-22T01:52:28.506Z,92.10
2019-05-22T01:59:15.340Z,92.80
2019-05-22T02:06:01.583Z,93.00
2019-05-22T02:12:52.656Z,93.10
2019-05-22T02:19:39.008Z,93.20
2019-05-22T02:26:24.318Z,92.50
2019-05-22T02:33:11.336Z,92.30
2019-05-22T02:39:58.083Z,91.70
2019-05-22T02:46:43.361Z,90.70
2019-05-22T02:53:28.663Z,90.90
2019-05-22T03:00:16.952Z,91.30
2019-05-22T03:07:02.167Z,91.60
2019-05-22T03:14:01.131Z,91.20
2019-05-22T03:20:48.294Z,91.10
2019-05-22T03:27:45.797Z,91.40
2019-05-22T03:34:31.188Z,91.90
2019-05-22T03:41:18.205Z,91.90
2019-05-22T03:48:04.662Z,91.10
2019-05-22T03:54:49.610Z,91.60
2019-05-22T04:01:35.347Z,91.60
2019-05-22T04:08:25.542Z,91.20
2019-05-22T04:15:12.658Z,90.50
2019-05-22T04:21:58.094Z,90.90
2019-05-22T04:28:48.908Z,90.80
2019-05-22T04:35:35.120Z,91.50
2019-05-22T04:42:22.200Z,91.00
2019-05-22T04:49:08.721Z,91.00
2019-05-22T04:55:54.653Z,90.40
2019-05-22T05:02:40.500Z,90.50
2019-05-22T05:09:26.193Z,90.30
2019-05-22T05:16:11.883Z,89.70
2019-05-22T05:22:57.386Z,88.50
2019-05-22T05:29:42.803Z,86.40
2019-05-22T05:36:28.220Z,83.40
2019-05-22T05:43:15.294Z,81.60
2019-05-22T05:50:01.206Z,81.60
2019-05-22T05:56:50.302Z,81.00
2019-05-22T06:03:39.569Z,80.40
2019-05-22T06:10:28.254Z,79.50
2019-05-22T06:17:36.350Z,78.80
2019-05-22T06:24:33.110Z,77.30
2019-05-22T06:31:40.307Z,75.90
2019-05-22T06:38:48.770Z,74.60
2019-05-22T06:45:35.649Z,73.70
2019-05-22T06:52:22.538Z,73.40
2019-05-22T06:59:08.029Z,74.70
2019-05-22T07:05:54.776Z,72.40
2019-05-22T07:12:39.975Z,71.40
2019-05-22T07:19:25.286Z,69.70
2019-05-22T07:26:10.526Z,69.70
2019-05-22T07:32:55.762Z,69.50
2019-05-22T07:39:41.722Z,68.40
2019-05-22T07:46:30.508Z,69.30
2019-05-22T07:53:13.647Z,68.20
2019-05-22T07:59:59.155Z,67.40
2019-05-22T08:06:45.437Z,67.70
2019-05-22T08:13:32.306Z,66.70
2019-05-22T08:20:17.659Z,65.20
2019-05-22T08:27:04.867Z,57.20
2019-05-22T08:33:50.058Z,47.80
2019-05-22T08:40:36.740Z,44.40
2019-05-22T08:47:21.989Z,48.70
2019-05-22T08:54:07.633Z,52.30
2019-05-22T09:00:53.448Z,56.00
2019-05-22T09:07:40.100Z,58.10
2019-05-22T09:14:26.171Z,58.40
2019-05-22T09:21:12.204Z,61.00
2019-05-22T09:27:58.000Z,61.10
2019-05-22T09:34:44.417Z,61.90
2019-05-22T09:41:30.105Z,61.40
2019-05-22T09:48:15.704Z,60.70
2019-05-22T09:55:00.951Z,60.90
2019-05-22T10:01:45.964Z,59.00
2019-05-22T10:08:31.610Z,57.60
2019-05-22T10:15:17.257Z,56.10
2019-05-22T10:22:03.595Z,55.80
2019-05-22T10:28:49.109Z,56.30
2019-05-22T10:35:34.385Z,56.90
2019-05-22T10:42:25.191Z,54.90
2019-05-22T10:49:10.829Z,54.80
2019-05-22T10:55:56.289Z,53.90
2019-05-22T11:02:41.814Z,52.70
2019-05-22T11:09:28.812Z,55.70
2019-05-22T11:16:14.562Z,56.80
2019-05-22T11:23:01.015Z,55.10
2019-05-22T11:29:47.185Z,52.90
2019-05-22T11:36:32.258Z,49.10
2019-05-22T11:43:17.756Z,49.00
2019-05-22T11:50:03.008Z,49.80
2019-05-22T11:56:48.088Z,47.10
2019-05-22T12:03:34.715Z,53.00
2019-05-22T12:10:21.134Z,52.10
2019-05-22T12:17:07.893Z,51.10
2019-05-22T12:23:53.544Z,52.90
2019-05-22T12:30:39.421Z,52.20
2019-05-22T12:37:25.570Z,48.50
2019-05-22T12:44:11.146Z,46.60
2019-05-22T12:50:56.647Z,47.90
2019-05-22T12:57:41.916Z,51.70
2019-05-22T13:04:28.668Z,49.40
2019-05-22T13:11:14.936Z,49.50
2019-05-22T13:18:00.463Z,48.80
2019-05-22T13:24:46.012Z,48.00
2019-05-22T13:31:31.126Z,45.00
2019-05-22T13:38:18.030Z,44.60
2019-05-22T13:45:06.286Z,45.80
2019-05-22T13:51:51.739Z,48.00
2019-05-22T13:58:37.831Z,45.10
2019-05-22T14:05:25.796Z,45.00
2019-05-22T14:12:12.046Z,44.40
2019-05-22T14:18:57.067Z,45.90
2019-05-22T14:25:42.860Z,46.30
2019-05-22T14:32:30.046Z,45.30
2019-05-22T14:39:15.883Z,45.80
2019-05-22T14:46:01.155Z,46.30
2019-05-22T14:52:47.787Z,46.40
2019-05-22T14:59:35.230Z,49.40
2019-05-22T15:06:20.736Z,49.20
2019-05-22T15:13:06.113Z,51.50
2019-05-22T15:19:54.016Z,51.50
2019-05-22T15:26:39.250Z,46.00
2019-05-22T15:33:25.823Z,45.20
2019-05-22T15:40:11.986Z,43.60
2019-05-22T15:46:57.196Z,44.40
2019-05-22T15:53:46.028Z,44.40
2019-05-22T16:00:34.511Z,44.40
2019-05-22T16:07:21.372Z,45.70
2019-05-22T16:14:07.644Z,44.50
2019-05-22T16:20:54.511Z,46.40
2019-05-22T16:27:42.783Z,46.40
2019-05-22T16:34:30.015Z,46.60
2019-05-22T16:41:17.121Z,46.70
2019-05-22T16:48:03.473Z,44.90
2019-05-22T16:54:49.628Z,44.50
2019-05-22T17:01:56.191Z,43.70
2019-05-22T17:08:22.854Z,44.70
2019-05-22T17:15:10.811Z,45.30
2019-05-22T17:21:56.780Z,45.00
2019-05-22T17:28:41.956Z,45.30
2019-05-22T17:35:28.160Z,46.60
2019-05-22T17:42:16.455Z,47.10
2019-05-22T17:49:02.195Z,46.50
2019-05-22T17:55:48.906Z,46.50
2019-05-22T18:02:35.928Z,47.30
2019-05-22T18:09:21.351Z,48.10
2019-05-22T18:16:07.399Z,49.60
2019-05-22T18:22:52.689Z,49.90
2019-05-22T18:29:37.689Z,49.20
2019-05-22T18:36:22.781Z,50.10
2019-05-22T18:43:07.963Z,51.00
2019-05-22T18:49:53.139Z,52.60
2019-05-22T18:56:38.202Z,54.30
2019-05-22T19:03:23.458Z,56.10
2019-05-22T19:10:09.527Z,57.80
2019-05-22T19:16:54.723Z,59.10
2019-05-22T19:23:39.857Z,60.80
2019-05-22T19:30:26.319Z,62.00
2019-05-22T19:37:11.884Z,64.90
2019-05-22T19:43:57.495Z,65.10
2019-05-22T19:50:42.633Z,67.20
2019-05-22T19:57:28.027Z,69.80
2019-05-22T20:04:14.436Z,72.30
2019-05-22T20:10:59.443Z,74.80
2019-05-22T20:17:44.472Z,77.30
2019-05-22T20:24:29.958Z,78.90
2019-05-22T20:31:15.534Z,80.20
2019-05-22T20:38:01.739Z,81.70
2019-05-22T20:44:46.962Z,82.80
2019-05-22T20:51:32.290Z,83.80
2019-05-22T20:58:19.397Z,85.30
2019-05-22T21:05:12.437Z,84.60
2019-05-22T21:11:58.303Z,82.70
2019-05-22T21:18:45.610Z,82.10
2019-05-22T21:25:31.315Z,82.70
2019-05-22T21:32:17.084Z,83.50
2019-05-22T21:39:04.063Z,84.80
2019-05-22T21:45:49.390Z,88.20
2019-05-22T21:52:36.679Z,90.30
2019-05-22T21:59:21.687Z,91.20
2019-05-22T22:06:07.065Z,91.60
2019-05-22T22:12:53.601Z,92.00
2019-05-22T22:19:39.103Z,92.60
2019-05-22T22:26:26.550Z,92.60
2019-05-22T22:33:14.504Z,93.20
2019-05-22T22:40:01.584Z,93.50
2019-05-22T22:46:57.744Z,93.30
2019-05-22T22:53:43.695Z,93.10
2019-05-22T23:00:40.009Z,94.40
2019-05-22T23:07:28.875Z,94.50
2019-05-22T23:14:15.637Z,94.80
2019-05-22T23:21:00.600Z,94.50
2019-05-22T23:27:47.204Z,94.80
2019-05-22T23:34:32.565Z,94.70
2019-05-22T23:41:17.507Z,94.90
2019-05-22T23:48:07.200Z,95.00
2019-05-22T23:54:53.823Z,94.90
